createdAt,value
2022-08-25T00:00:21.973Z,100853.91
2022-08-25T00:02:56.199Z,100868.63
2022-08-25T00:05:29.309Z,100788.09
2022-08-25T00:07:58.534Z,100862.22
2022-08-25T00:10:28.753Z,100858.47
2022-08-25T00:12:57.542Z,100871.53
2022-08-25T00:15:26.672Z,100862.88
2022-08-25T00:17:55.520Z,100855.56
2022-08-25T00:20:25.441Z,100872.69
2022-08-25T00:22:55.301Z,100875.09
2022-08-25T00:25:25.046Z,100867.75
2022-08-25T00:27:55.403Z,100871.16
2022-08-25T00:30:24.396Z,100873.72
2022-08-25T00:32:55.463Z,100868.09
2022-08-25T00:35:27.844Z,100873.38
2022-08-25T00:37:57.359Z,100866.94
2022-08-25T00:40:28.437Z,100856.25
2022-08-25T00:42:59.105Z,100868.09
2022-08-25T00:45:28.613Z,100870.47
2022-08-25T00:48:00.101Z,100877.41
2022-08-25T00:50:30.422Z,100782.66
2022-08-25T00:53:03.330Z,100851.34
2022-08-25T00:55:35.617Z,100876.41
2022-08-25T00:58:11.699Z,100876.53
2022-08-25T01:00:44.345Z,100858.47
2022-08-25T01:03:16.237Z,100855.06
2022-08-25T01:05:46.698Z,100874.69
2022-08-25T01:08:21.245Z,100865.22
2022-08-25T01:10:51.370Z,100878.91
2022-08-25T01:13:27.732Z,100813.75
2022-08-25T01:15:58.987Z,100854.38
2022-08-25T01:18:28.498Z,100874.34
2022-08-25T01:21:00.893Z,100867.91
2022-08-25T01:23:29.843Z,100862.88
2022-08-25T01:26:04.922Z,100871.63
2022-08-25T01:28:33.966Z,100854.38
2022-08-25T01:31:03.026Z,100861.81
2022-08-25T01:33:32.191Z,100864.88
2022-08-25T01:36:03.349Z,100853.88
2022-08-25T01:38:32.411Z,100711.16
2022-08-25T01:41:01.228Z,100860.97
2022-08-25T01:43:37.158Z,100866.88
2022-08-25T01:46:06.807Z,100863.81
2022-08-25T01:48:35.817Z,100843.16
2022-08-25T01:51:06.015Z,100861.41
2022-08-25T01:53:34.876Z,100867.53
2022-08-25T01:56:11.602Z,100871.25
2022-08-25T01:58:43.141Z,100869.72
2022-08-25T02:01:16.051Z,100866.31
2022-08-25T02:03:47.997Z,100846.22
2022-08-25T02:06:21.866Z,100871.72
2022-08-25T02:09:01.208Z,100875.25
2022-08-25T02:11:30.129Z,100791.94
2022-08-25T02:13:59.221Z,100812.34
2022-08-25T02:16:31.883Z,100882.97
2022-08-25T02:19:01.772Z,100870.06
2022-08-25T02:21:32.577Z,100872.94
2022-08-25T02:24:01.395Z,100879.38
2022-08-25T02:26:30.275Z,100863.94
2022-08-25T02:28:59.035Z,100878.88
2022-08-25T02:31:28.577Z,100852.72
2022-08-25T02:33:58.041Z,100865.78
2022-08-25T02:36:27.108Z,100854.53
2022-08-25T02:38:57.480Z,100870.94
2022-08-25T02:41:31.375Z,100850.41
2022-08-25T02:44:01.751Z,100870.44
2022-08-25T02:46:31.215Z,100875.63
2022-08-25T02:49:00.416Z,100860.53
2022-08-25T02:51:30.559Z,100873.72
2022-08-25T02:54:03.230Z,100868.31
2022-08-25T02:56:33.449Z,100869.59
2022-08-25T02:59:03.098Z,100877.41
2022-08-25T03:01:33.438Z,100861.16
2022-08-25T03:04:02.980Z,100875.69
2022-08-25T03:06:31.872Z,100875.75
2022-08-25T03:09:02.668Z,100874.63
2022-08-25T03:11:31.907Z,100879.50
2022-08-25T03:14:00.784Z,100878.16
2022-08-25T03:16:29.587Z,100882.53
2022-08-25T03:18:59.517Z,100883.25
2022-08-25T03:21:30.459Z,100875.66
2022-08-25T03:24:01.556Z,100879.19
2022-08-25T03:26:47.635Z,100876.84
2022-08-25T03:29:16.419Z,100862.63
2022-08-25T03:31:45.864Z,100866.22
2022-08-25T03:34:16.861Z,100869.09
2022-08-25T03:36:47.142Z,100867.94
2022-08-25T03:39:17.818Z,100873.91
2022-08-25T03:41:47.308Z,100875.09
2022-08-25T03:44:16.894Z,100876.13
2022-08-25T03:46:47.639Z,100880.03
2022-08-25T03:49:19.095Z,100877.72
2022-08-25T03:51:50.318Z,100877.66
2022-08-25T03:54:23.322Z,100884.44
2022-08-25T03:56:52.341Z,100872.31
2022-08-25T03:59:21.461Z,100845.38
2022-08-25T04:01:54.991Z,100865.22
2022-08-25T04:04:24.675Z,100871.94
2022-08-25T04:06:54.038Z,100846.19
2022-08-25T04:09:24.294Z,100877.72
2022-08-25T04:11:53.683Z,100853.03
2022-08-25T04:14:24.688Z,100855.75
2022-08-25T04:16:54.237Z,100865.56
2022-08-25T04:19:23.531Z,100786.88
2022-08-25T04:21:54.523Z,100860.97
2022-08-25T04:24:26.799Z,100865.91
2022-08-25T04:26:55.936Z,100792.13
2022-08-25T04:29:26.627Z,100771.00
2022-08-25T04:31:56.716Z,100853.22
2022-08-25T04:34:29.419Z,100856.56
2022-08-25T04:37:01.604Z,100857.13
2022-08-25T04:39:32.359Z,100848.97
2022-08-25T04:42:01.467Z,100852.34
2022-08-25T04:44:31.973Z,100859.56
2022-08-25T04:47:02.660Z,100852.84
2022-08-25T04:49:32.238Z,100840.50
2022-08-25T04:52:01.120Z,100826.94
2022-08-25T04:54:36.040Z,100829.31
2022-08-25T04:57:07.081Z,100842.81
2022-08-25T04:59:36.006Z,100781.97
2022-08-25T05:02:06.717Z,100836.44
2022-08-25T05:04:37.582Z,100846.84
2022-08-25T05:07:06.710Z,100849.22
2022-08-25T05:09:37.850Z,100839.53
2022-08-25T05:12:07.164Z,100845.81
2022-08-25T05:14:36.141Z,100847.47
2022-08-25T05:17:05.042Z,100839.66
2022-08-25T05:19:33.962Z,100819.69
2022-08-25T05:22:02.771Z,100834.00
2022-08-25T05:24:31.762Z,100838.50
2022-08-25T05:27:03.302Z,100836.84
2022-08-25T05:29:32.147Z,100838.50
2022-08-25T05:32:01.004Z,100837.13
2022-08-25T05:34:30.276Z,100838.34
2022-08-25T05:37:00.267Z,100840.47
2022-08-25T05:39:32.662Z,100843.84
2022-08-25T05:42:02.746Z,100833.69
2022-08-25T05:44:31.687Z,100837.28
2022-08-25T05:47:00.498Z,100834.91
2022-08-25T05:49:29.491Z,100834.91
2022-08-25T05:51:58.271Z,100830.75
2022-08-25T05:54:27.188Z,100825.53
2022-08-25T05:56:56.471Z,100814.06
2022-08-25T05:59:26.675Z,100833.78
2022-08-25T06:02:12.814Z,100827.56
2022-08-25T06:04:41.632Z,100832.81
2022-08-25T06:07:10.665Z,100826.56
2022-08-25T06:09:40.026Z,100828.38
2022-08-25T06:12:09.919Z,100826.75
2022-08-25T06:14:40.097Z,100822.56
2022-08-25T06:17:08.931Z,100822.56
2022-08-25T06:19:39.770Z,100830.72
2022-08-25T06:22:10.254Z,100767.84
2022-08-25T06:24:38.986Z,100819.88
2022-08-25T06:27:07.668Z,100834.13
2022-08-25T06:29:36.559Z,100827.09
2022-08-25T06:32:08.971Z,100828.75
2022-08-25T06:34:37.743Z,100823.31
2022-08-25T06:37:06.914Z,100828.34
2022-08-25T06:39:35.703Z,100827.06
2022-08-25T06:42:04.611Z,100832.66
2022-08-25T06:44:34.081Z,100843.72
2022-08-25T06:47:03.020Z,100826.09
2022-08-25T06:49:36.235Z,100836.22
2022-08-25T06:52:05.898Z,100787.75
2022-08-25T06:54:34.684Z,100837.03
2022-08-25T06:57:04.623Z,100831.84
2022-08-25T06:59:33.595Z,100822.06
2022-08-25T07:02:03.201Z,100837.78
2022-08-25T07:04:34.706Z,100840.91
2022-08-25T07:07:03.748Z,100833.03
2022-08-25T07:09:36.306Z,100825.34
2022-08-25T07:12:08.805Z,100833.09
2022-08-25T07:14:38.031Z,100818.75
2022-08-25T07:17:12.443Z,100835.16
2022-08-25T07:19:42.978Z,100827.41
2022-08-25T07:22:12.844Z,100822.94
2022-08-25T07:24:42.595Z,100831.19
2022-08-25T07:27:11.568Z,100824.53
2022-08-25T07:29:42.624Z,100815.59
2022-08-25T07:32:11.863Z,100826.31
2022-08-25T07:34:59.806Z,100815.88
2022-08-25T07:37:47.935Z,100820.53
2022-08-25T07:40:21.348Z,100800.09
2022-08-25T07:42:51.769Z,100804.97
2022-08-25T07:45:25.579Z,100808.78
2022-08-25T07:47:54.604Z,100805.00
2022-08-25T07:50:24.879Z,100768.44
2022-08-25T07:52:55.205Z,100797.44
2022-08-25T07:55:24.824Z,100777.06
2022-08-25T07:57:55.992Z,100770.09
2022-08-25T08:00:27.939Z,100782.44
2022-08-25T08:02:57.782Z,100788.06
2022-08-25T08:05:29.473Z,100773.59
2022-08-25T08:07:59.585Z,100782.97
2022-08-25T08:13:18.808Z,100777.00
2022-08-25T08:15:48.814Z,100772.69
2022-08-25T08:18:18.387Z,100778.88
2022-08-25T08:20:50.114Z,100778.44
2022-08-25T08:23:19.014Z,100773.44
2022-08-25T08:25:48.262Z,100762.66
2022-08-25T08:28:17.227Z,100755.47
2022-08-25T08:30:53.014Z,100766.75
2022-08-25T08:33:24.808Z,100763.28
2022-08-25T08:36:05.041Z,100755.06
2022-08-25T08:38:35.019Z,100763.09
2022-08-25T08:42:09.774Z,100757.94
2022-08-25T08:44:51.577Z,100752.81
2022-08-25T08:47:30.203Z,100746.13
2022-08-25T08:50:06.704Z,100753.28
2022-08-25T08:52:44.547Z,100724.03
2022-08-25T08:55:26.532Z,100742.78
2022-08-25T08:57:58.483Z,100738.63
2022-08-25T09:00:28.891Z,100716.91
2022-08-25T09:03:05.458Z,100735.50
2022-08-25T09:05:47.200Z,100737.25
2022-08-25T09:08:20.533Z,100737.19
2022-08-25T09:11:01.624Z,100740.44
2022-08-25T09:13:43.666Z,100741.47
2022-08-25T09:16:38.991Z,100721.59
2022-08-25T09:19:32.084Z,100736.22
2022-08-25T09:22:35.927Z,100728.31
2022-08-25T09:25:10.461Z,100724.38
2022-08-25T09:27:45.592Z,100727.50
2022-08-25T09:30:17.047Z,100719.25
2022-08-25T09:32:52.325Z,100701.97
2022-08-25T09:35:26.198Z,100714.56
2022-08-25T09:38:00.241Z,100716.34
2022-08-25T09:40:33.894Z,100717.09
2022-08-25T09:43:05.757Z,100708.66
2022-08-25T09:45:42.326Z,100707.81
2022-08-25T09:48:28.389Z,100704.44
2022-08-25T09:51:02.552Z,100705.25
2022-08-25T09:53:33.853Z,100702.25
2022-08-25T09:56:08.139Z,100700.50
2022-08-25T09:58:37.208Z,100694.34
2022-08-25T10:01:14.385Z,100692.09
2022-08-25T10:04:05.058Z,100685.06
2022-08-25T10:06:43.842Z,100635.72
2022-08-25T10:09:24.839Z,100680.84
2022-08-25T10:11:57.956Z,100665.56
2022-08-25T10:14:36.636Z,100662.88
2022-08-25T10:17:24.762Z,100670.44
2022-08-25T10:20:17.426Z,100661.22
2022-08-25T10:22:48.343Z,100648.31
2022-08-25T10:25:24.602Z,100658.09
2022-08-25T10:28:08.786Z,100663.81
2022-08-25T10:30:47.738Z,100663.47
2022-08-25T10:33:25.965Z,100660.47
2022-08-25T10:36:00.328Z,100657.41
2022-08-25T10:38:38.708Z,100647.06
2022-08-25T10:41:42.669Z,100653.22
2022-08-25T10:44:39.976Z,100646.03
2022-08-25T10:47:45.269Z,100652.03
2022-08-25T10:50:20.388Z,100639.25
2022-08-25T10:53:06.036Z,100610.22
2022-08-25T10:55:49.027Z,100631.78
2022-08-25T10:58:25.909Z,100643.88
2022-08-25T11:01:09.823Z,100639.19
2022-08-25T11:03:49.348Z,100644.25
2022-08-25T11:06:24.950Z,100634.47
2022-08-25T11:08:58.788Z,100630.22
2022-08-25T11:11:32.939Z,100640.09
2022-08-25T11:14:11.053Z,100636.94
2022-08-25T11:16:46.178Z,100635.00
2022-08-25T11:19:21.833Z,100630.34
2022-08-25T11:21:57.873Z,100616.53
2022-08-25T11:25:04.120Z,100626.34
2022-08-25T11:27:38.205Z,100615.50
2022-08-25T11:30:10.397Z,100615.53
2022-08-25T11:32:42.061Z,100615.69
2022-08-25T11:35:13.612Z,100614.78
2022-08-25T11:37:47.792Z,100607.56
2022-08-25T11:40:45.558Z,100606.78
2022-08-25T11:43:40.631Z,100606.44
2022-08-25T11:46:32.704Z,100603.06
2022-08-25T11:49:26.755Z,100604.63
2022-08-25T11:51:55.666Z,100606.81
2022-08-25T11:54:38.846Z,100597.06
2022-08-25T11:57:22.596Z,100593.09
2022-08-25T12:00:07.139Z,100599.47
2022-08-25T12:02:39.327Z,100596.13
2022-08-25T12:05:13.110Z,100542.72
2022-08-25T12:08:22.892Z,100592.06
2022-08-25T12:10:59.012Z,100590.84
2022-08-25T12:13:42.602Z,100530.00
2022-08-25T12:16:38.919Z,100587.84
2022-08-25T12:19:29.595Z,100584.31
2022-08-25T12:22:38.934Z,100595.22
2022-08-25T12:25:15.618Z,100587.31
2022-08-25T12:27:56.887Z,100589.25
2022-08-25T12:30:36.768Z,100574.50
2022-08-25T12:33:14.698Z,100557.94
2022-08-25T12:35:56.479Z,100586.75
2022-08-25T12:38:31.825Z,100580.91
2022-08-25T12:41:05.427Z,100579.13
2022-08-25T12:43:37.880Z,100569.78
2022-08-25T12:46:36.795Z,100578.56
2022-08-25T12:49:14.402Z,100578.97
2022-08-25T12:51:54.276Z,100570.88
2022-08-25T12:54:43.603Z,100559.22
2022-08-25T12:57:38.141Z,100572.09
2022-08-25T13:00:18.927Z,100526.28
2022-08-25T13:03:11.043Z,100563.19
2022-08-25T13:06:08.999Z,100562.22
2022-08-25T13:08:57.931Z,100563.19
2022-08-25T13:11:35.233Z,100562.69
2022-08-25T13:14:13.537Z,100556.47
2022-08-25T13:16:54.630Z,100548.00
2022-08-25T13:19:25.447Z,100564.19
2022-08-25T13:21:56.812Z,100541.38
2022-08-25T13:24:26.822Z,100564.06
2022-08-25T13:26:59.901Z,100550.78
2022-08-25T13:29:36.951Z,100544.94
2022-08-25T13:32:21.532Z,100545.53
2022-08-25T13:37:30.532Z,100543.75
2022-08-25T13:40:12.022Z,100549.00
2022-08-25T13:42:48.975Z,100548.28
2022-08-25T13:45:25.082Z,100555.34
2022-08-25T13:47:55.904Z,100558.88
2022-08-25T13:50:35.096Z,100547.13
2022-08-25T13:53:11.340Z,100559.59
2022-08-25T13:55:50.914Z,100542.78
2022-08-25T13:58:38.658Z,100545.31
2022-08-25T14:01:23.253Z,100554.06
2022-08-25T14:04:22.731Z,100540.00
2022-08-25T14:07:07.369Z,100542.78
2022-08-25T14:09:41.918Z,100538.94
2022-08-25T14:15:04.882Z,100543.38
2022-08-25T14:17:39.955Z,100535.91
2022-08-25T14:20:20.687Z,100538.13
2022-08-25T14:22:54.689Z,100535.72
2022-08-25T14:25:23.643Z,100508.19
2022-08-25T14:28:13.707Z,100531.13
2022-08-25T14:30:51.793Z,100525.84
2022-08-25T14:33:23.616Z,100526.81
2022-08-25T14:35:54.974Z,100531.47
2022-08-25T14:38:24.049Z,100527.25
2022-08-25T14:40:53.836Z,100532.66
2022-08-25T14:43:24.012Z,100528.53
2022-08-25T14:46:04.996Z,100522.97
2022-08-25T14:48:40.557Z,100533.16
2022-08-25T14:51:13.171Z,100533.16
2022-08-25T14:53:42.485Z,100527.03
2022-08-25T14:56:12.206Z,100522.69
2022-08-25T14:58:50.788Z,100521.97
2022-08-25T15:01:29.474Z,100521.25
2022-08-25T15:04:04.729Z,100521.13
2022-08-25T15:06:35.525Z,100528.22
2022-08-25T15:09:11.696Z,100527.16
2022-08-25T15:11:43.631Z,100474.75
2022-08-25T15:14:15.703Z,100514.31
2022-08-25T15:16:50.461Z,100521.16
2022-08-25T15:19:21.727Z,100509.28
2022-08-25T15:21:52.728Z,100516.16
2022-08-25T15:24:25.713Z,100522.09
2022-08-25T15:26:57.013Z,100517.00
2022-08-25T15:29:28.277Z,100511.72
2022-08-25T15:32:00.199Z,100515.34
2022-08-25T15:34:29.281Z,100522.00
2022-08-25T15:36:59.053Z,100494.16
2022-08-25T15:39:28.458Z,100512.44
2022-08-25T15:41:57.405Z,100516.34
2022-08-25T15:44:29.698Z,100518.19
2022-08-25T15:47:00.810Z,100512.28
2022-08-25T15:49:31.187Z,100513.97
2022-08-25T15:52:00.398Z,100506.97
2022-08-25T15:54:30.975Z,100516.69
2022-08-25T15:57:00.698Z,100514.81
2022-08-25T15:59:30.750Z,100508.59
2022-08-25T16:02:03.288Z,100507.63
2022-08-25T16:04:33.289Z,100511.81
2022-08-25T16:07:02.147Z,100507.09
2022-08-25T16:09:33.124Z,100518.63
2022-08-25T16:12:06.737Z,100480.72
2022-08-25T16:14:38.569Z,100493.19
2022-08-25T16:17:09.168Z,100517.75
2022-08-25T16:19:38.384Z,100518.31
2022-08-25T16:22:10.902Z,100522.97
2022-08-25T16:24:42.122Z,100516.63
2022-08-25T16:27:12.174Z,100515.66
2022-08-25T16:29:43.884Z,100518.47
2022-08-25T16:32:16.102Z,100521.19
2022-08-25T16:34:44.992Z,100511.41
2022-08-25T16:37:16.481Z,100510.59
2022-08-25T16:39:46.301Z,100510.13
2022-08-25T16:42:15.340Z,100510.31
2022-08-25T16:44:44.790Z,100511.53
2022-08-25T16:47:17.655Z,100496.66
2022-08-25T16:49:49.800Z,100521.28
2022-08-25T16:52:37.781Z,100509.69
2022-08-25T16:55:16.547Z,100503.00
2022-08-25T16:57:48.164Z,100507.91
2022-08-25T17:00:19.500Z,100511.63
2022-08-25T17:02:52.082Z,100510.41
2022-08-25T17:05:20.952Z,100513.97
2022-08-25T17:08:09.864Z,100504.63
2022-08-25T17:10:43.665Z,100511.19
2022-08-25T17:13:14.055Z,100501.22
2022-08-25T17:15:45.215Z,100514.72
2022-08-25T17:18:16.208Z,100514.81
2022-08-25T17:20:46.117Z,100517.91
2022-08-25T17:23:16.412Z,100501.81
2022-08-25T17:25:45.362Z,100522.63
2022-08-25T17:28:14.160Z,100522.34
2022-08-25T17:30:43.550Z,100521.91
2022-08-25T17:33:14.341Z,100518.56
2022-08-25T17:35:47.611Z,100501.47
2022-08-25T17:38:20.866Z,100519.56
2022-08-25T17:40:49.902Z,100524.69
2022-08-25T17:43:18.908Z,100525.41
2022-08-25T17:45:48.275Z,100523.59
2022-08-25T17:48:18.607Z,100532.47
2022-08-25T17:50:49.443Z,100517.78
2022-08-25T17:53:19.563Z,100531.00
2022-08-25T17:55:48.906Z,100530.47
2022-08-25T17:58:19.150Z,100517.47
2022-08-25T18:00:49.587Z,100521.31
2022-08-25T18:03:19.576Z,100510.88
2022-08-25T18:05:50.493Z,100519.41
2022-08-25T18:08:19.656Z,100516.97
2022-08-25T18:11:01.742Z,100512.63
2022-08-25T18:13:31.768Z,100517.25
2022-08-25T18:16:03.206Z,100493.59
2022-08-25T18:18:34.017Z,100525.38
2022-08-25T18:21:06.806Z,100515.72
2022-08-25T18:23:36.001Z,100504.84
2022-08-25T18:26:06.755Z,100514.09
2022-08-25T18:28:36.465Z,100499.47
2022-08-25T18:31:07.547Z,100502.44
2022-08-25T18:33:38.195Z,100512.06
2022-08-25T18:36:12.881Z,100460.13
2022-08-25T18:39:00.192Z,100509.03
2022-08-25T18:41:36.696Z,100507.59
2022-08-25T18:44:07.482Z,100482.84
2022-08-25T18:46:37.175Z,100498.88
2022-08-25T18:49:08.644Z,100507.22
2022-08-25T18:51:40.159Z,100500.97
2022-08-25T18:54:23.120Z,100508.13
2022-08-25T18:56:54.793Z,100511.94
2022-08-25T18:59:24.355Z,100489.69
2022-08-25T19:01:55.137Z,100492.44
2022-08-25T19:04:31.279Z,100498.97
2022-08-25T19:07:03.477Z,100488.97
2022-08-25T19:09:33.657Z,100499.47
2022-08-25T19:12:02.595Z,100495.72
2022-08-25T19:14:31.777Z,100431.81
2022-08-25T19:17:01.119Z,100496.66
2022-08-25T19:19:30.193Z,100494.50
2022-08-25T19:21:59.517Z,100455.50
2022-08-25T19:24:30.074Z,100493.47
2022-08-25T19:27:02.439Z,100487.81
2022-08-25T19:29:31.720Z,100496.66
2022-08-25T19:32:02.720Z,100472.75
2022-08-25T19:34:36.184Z,100495.44
2022-08-25T19:37:06.965Z,100476.97
2022-08-25T19:39:41.665Z,100486.63
2022-08-25T19:42:34.826Z,100475.69
2022-08-25T19:45:01.172Z,100482.22
2022-08-25T19:47:32.202Z,100483.47
2022-08-25T19:50:01.538Z,100476.13
2022-08-25T19:52:30.668Z,100467.72
2022-08-25T19:55:02.881Z,100481.59
2022-08-25T19:57:42.901Z,100482.41
2022-08-25T20:00:16.656Z,100484.50
2022-08-25T20:02:45.917Z,100476.31
2022-08-25T20:05:23.671Z,100458.91
2022-08-25T20:07:55.145Z,100458.25
2022-08-25T20:10:28.017Z,100471.88
2022-08-25T20:13:00.806Z,100466.63
2022-08-25T20:15:34.342Z,100473.53
2022-08-25T20:18:06.549Z,100470.97
2022-08-25T20:20:36.363Z,100467.16
2022-08-25T20:23:22.892Z,100471.31
2022-08-25T20:25:53.145Z,100472.75
2022-08-25T20:28:22.125Z,100478.13
2022-08-25T20:30:50.943Z,100475.84
2022-08-25T20:33:22.615Z,100470.81
2022-08-25T20:35:53.166Z,100475.63
2022-08-25T20:38:22.510Z,100474.19
2022-08-25T20:40:53.209Z,100466.72
2022-08-25T20:43:22.141Z,100471.69
2022-08-25T20:45:51.040Z,100465.13
2022-08-25T20:48:19.881Z,100481.66
2022-08-25T20:50:54.332Z,100467.03
2022-08-25T20:53:27.124Z,100463.84
2022-08-25T20:55:57.797Z,100471.97
2022-08-25T20:58:26.954Z,100460.66
2022-08-25T21:00:56.498Z,100448.56
2022-08-25T21:03:25.420Z,100465.16
2022-08-25T21:05:54.397Z,100445.84
2022-08-25T21:08:23.828Z,100452.31
2022-08-25T21:10:54.718Z,100445.34
2022-08-25T21:13:24.847Z,100459.19
2022-08-25T21:15:54.535Z,100469.66
2022-08-25T21:18:23.414Z,100472.13
2022-08-25T21:20:53.017Z,100473.31
2022-08-25T21:23:21.959Z,100463.19
2022-08-25T21:25:51.783Z,100461.44
2022-08-25T21:28:20.715Z,100446.31
2022-08-25T21:30:51.450Z,100460.13
2022-08-25T21:33:26.345Z,100462.25
2022-08-25T21:35:57.169Z,100467.84
2022-08-25T21:38:27.267Z,100438.44
2022-08-25T21:40:57.223Z,100460.13
2022-08-25T21:43:26.622Z,100460.31
2022-08-25T21:45:56.744Z,100464.09
2022-08-25T21:48:26.216Z,100460.34
2022-08-25T21:51:04.536Z,100464.75
2022-08-25T21:53:35.623Z,100464.44
2022-08-25T21:56:06.155Z,100457.69
2022-08-25T21:58:36.391Z,100458.88
2022-08-25T22:01:10.977Z,100463.94
2022-08-25T22:03:41.066Z,100463.69
2022-08-25T22:06:11.675Z,100459.81
2022-08-25T22:08:43.718Z,100466.91
2022-08-25T22:11:18.550Z,100464.91
2022-08-25T22:13:50.410Z,100458.56
2022-08-25T22:16:20.880Z,100452.03
2022-08-25T22:18:51.471Z,100461.59
2022-08-25T22:21:23.229Z,100395.72
2022-08-25T22:23:52.072Z,100465.00
2022-08-25T22:26:22.065Z,100445.41
2022-08-25T22:28:51.333Z,100459.34
2022-08-25T22:31:21.492Z,100458.28
2022-08-25T22:33:50.803Z,100467.81
2022-08-25T22:36:21.661Z,100467.59
2022-08-25T22:38:51.328Z,100461.13
2022-08-25T22:41:21.682Z,100454.84
2022-08-25T22:43:51.796Z,100456.22
2022-08-25T22:46:25.702Z,100426.38
2022-08-25T22:48:58.436Z,100454.84
2022-08-25T22:51:31.631Z,100452.88
2022-08-25T22:54:02.101Z,100450.94
2022-08-25T22:56:35.650Z,100413.53
2022-08-25T22:59:07.967Z,100426.59
2022-08-25T23:01:39.752Z,100443.56
2022-08-25T23:04:09.032Z,100441.97
2022-08-25T23:06:39.645Z,100440.09
2022-08-25T23:09:10.866Z,100445.06
2022-08-25T23:11:40.154Z,100442.69
2022-08-25T23:14:11.166Z,100439.00
2022-08-25T23:16:42.899Z,100439.34
2022-08-25T23:19:13.985Z,100444.69
2022-08-25T23:22:01.675Z,100384.28
2022-08-25T23:24:31.083Z,100438.97
2022-08-25T23:27:02.282Z,100434.22
2022-08-25T23:29:34.267Z,100427.97
2022-08-25T23:32:07.396Z,100428.13
2022-08-25T23:34:39.505Z,100436.09
2022-08-25T23:37:08.792Z,100439.19
2022-08-25T23:39:39.284Z,100441.16
2022-08-25T23:42:08.913Z,100439.56
2022-08-25T23:44:38.272Z,100423.88
2022-08-25T23:47:08.402Z,100422.63
2022-08-25T23:49:41.136Z,100406.88
2022-08-25T23:52:09.913Z,100424.06
2022-08-25T23:54:39.390Z,100431.44
2022-08-25T23:57:08.823Z,100427.03
2022-08-25T23:59:38.506Z,100424.53
